sensor_id;sensor_type;location;lat;lon;timestamp;P1;durP1;ratioP1;P2;durP2;ratioP2
64907;SDS011;64365;-1.756;110.040;2022-11-18T00:01:24;5.72;;;4.25;;
64907;SDS011;64365;-1.756;110.040;2022-11-18T00:03:50;10.43;;;4.88;;
64907;SDS011;64365;-1.756;110.040;2022-11-18T00:06:20;8.45;;;4.85;;
64907;SDS011;64365;-1.756;110.040;2022-11-18T00:08:48;7.32;;;4.72;;
64907;SDS011;64365;-1.756;110.040;2022-11-18T00:11:16;9.70;;;4.60;;
64907;SDS011;64365;-1.756;110.040;2022-11-18T00:14:03;7.93;;;4.20;;
64907;SDS011;64365;-1.756;110.040;2022-11-18T00:16:45;9.02;;;4.38;;
64907;SDS011;64365;-1.756;110.040;2022-11-18T00:19:12;8.40;;;4.50;;
64907;SDS011;64365;-1.756;110.040;2022-11-18T00:21:40;7.90;;;4.50;;
64907;SDS011;64365;-1.756;110.040;2022-11-18T00:24:07;8.77;;;4.43;;
64907;SDS011;64365;-1.756;110.040;2022-11-18T00:26:34;6.95;;;4.40;;
64907;SDS011;64365;-1.756;110.040;2022-11-18T00:29:01;7.40;;;4.20;;
64907;SDS011;64365;-1.756;110.040;2022-11-18T00:31:28;8.95;;;4.22;;
64907;SDS011;64365;-1.756;110.040;2022-11-18T00:33:55;7.38;;;4.15;;
64907;SDS011;64365;-1.756;110.040;2022-11-18T00:36:21;6.22;;;4.65;;
64907;SDS011;64365;-1.756;110.040;2022-11-18T00:38:49;7.45;;;4.03;;
64907;SDS011;64365;-1.756;110.040;2022-11-18T00:41:16;7.65;;;4.38;;
64907;SDS011;64365;-1.756;110.040;2022-11-18T00:43:42;9.88;;;5.22;;
64907;SDS011;64365;-1.756;110.040;2022-11-18T00:46:08;8.90;;;4.28;;
64907;SDS011;64365;-1.756;110.040;2022-11-18T00:48:37;10.07;;;5.00;;
64907;SDS011;64365;-1.756;110.040;2022-11-18T00:51:08;6.68;;;4.05;;
64907;SDS011;64365;-1.756;110.040;2022-11-18T00:53:35;7.10;;;4.18;;
64907;SDS011;64365;-1.756;110.040;2022-11-18T00:56:03;6.75;;;3.90;;
64907;SDS011;64365;-1.756;110.040;2022-11-18T00:58:30;8.82;;;4.28;;
64907;SDS011;64365;-1.756;110.040;2022-11-18T01:00:57;7.72;;;4.07;;
64907;SDS011;64365;-1.756;110.040;2022-11-18T01:03:24;7.97;;;4.55;;
64907;SDS011;64365;-1.756;110.040;2022-11-18T01:05:52;8.15;;;4.00;;
64907;SDS011;64365;-1.756;110.040;2022-11-18T01:08:19;10.00;;;4.30;;
64907;SDS011;64365;-1.756;110.040;2022-11-18T01:10:46;6.22;;;4.43;;
64907;SDS011;64365;-1.756;110.040;2022-11-18T01:13:16;6.25;;;4.68;;
64907;SDS011;64365;-1.756;110.040;2022-11-18T01:15:44;6.95;;;4.13;;
64907;SDS011;64365;-1.756;110.040;2022-11-18T01:18:11;10.85;;;4.07;;
64907;SDS011;64365;-1.756;110.040;2022-11-18T01:20:38;7.05;;;4.22;;
64907;SDS011;64365;-1.756;110.040;2022-11-18T01:23:05;6.70;;;4.10;;
64907;SDS011;64365;-1.756;110.040;2022-11-18T01:25:33;8.82;;;4.40;;
64907;SDS011;64365;-1.756;110.040;2022-11-18T01:28:01;7.07;;;4.50;;
64907;SDS011;64365;-1.756;110.040;2022-11-18T01:30:31;8.77;;;4.75;;
64907;SDS011;64365;-1.756;110.040;2022-11-18T01:32:58;7.85;;;4.55;;
64907;SDS011;64365;-1.756;110.040;2022-11-18T01:35:25;8.23;;;4.18;;
64907;SDS011;64365;-1.756;110.040;2022-11-18T01:37:52;11.65;;;4.20;;
64907;SDS011;64365;-1.756;110.040;2022-11-18T01:40:18;7.25;;;4.50;;
64907;SDS011;64365;-1.756;110.040;2022-11-18T01:42:45;6.72;;;4.35;;
64907;SDS011;64365;-1.756;110.040;2022-11-18T01:45:18;8.20;;;4.68;;
64907;SDS011;64365;-1.756;110.040;2022-11-18T01:47:52;7.97;;;4.68;;
64907;SDS011;64365;-1.756;110.040;2022-11-18T01:50:25;9.05;;;4.43;;
64907;SDS011;64365;-1.756;110.040;2022-11-18T01:52:53;6.22;;;4.78;;
64907;SDS011;64365;-1.756;110.040;2022-11-18T01:55:25;6.88;;;3.97;;
64907;SDS011;64365;-1.756;110.040;2022-11-18T01:57:57;9.10;;;4.40;;
64907;SDS011;64365;-1.756;110.040;2022-11-18T02:00:28;9.13;;;4.13;;
64907;SDS011;64365;-1.756;110.040;2022-11-18T02:02:56;8.85;;;3.97;;
64907;SDS011;64365;-1.756;110.040;2022-11-18T02:05:25;7.60;;;5.25;;
64907;SDS011;64365;-1.756;110.040;2022-11-18T02:07:53;10.82;;;5.47;;
64907;SDS011;64365;-1.756;110.040;2022-11-18T02:10:20;11.82;;;4.93;;
64907;SDS011;64365;-1.756;110.040;2022-11-18T02:12:49;8.95;;;4.80;;
64907;SDS011;64365;-1.756;110.040;2022-11-18T02:15:16;8.75;;;4.85;;
64907;SDS011;64365;-1.756;110.040;2022-11-18T02:17:50;6.32;;;4.45;;
64907;SDS011;64365;-1.756;110.040;2022-11-18T02:20:29;6.95;;;4.35;;
64907;SDS011;64365;-1.756;110.040;2022-11-18T02:29:10;10.35;;;4.60;;
64907;SDS011;64365;-1.756;110.040;2022-11-18T02:31:44;8.95;;;4.43;;
64907;SDS011;64365;-1.756;110.040;2022-11-18T02:34:20;7.00;;;4.40;;
64907;SDS011;64365;-1.756;110.040;2022-11-18T02:36:56;7.40;;;5.15;;
64907;SDS011;64365;-1.756;110.040;2022-11-18T02:39:27;10.23;;;4.97;;
64907;SDS011;64365;-1.756;110.040;2022-11-18T02:41:56;8.40;;;4.68;;
64907;SDS011;64365;-1.756;110.040;2022-11-18T02:44:28;8.48;;;4.97;;
64907;SDS011;64365;-1.756;110.040;2022-11-18T02:46:57;10.48;;;5.10;;
64907;SDS011;64365;-1.756;110.040;2022-11-18T02:49:28;8.55;;;5.70;;
64907;SDS011;64365;-1.756;110.040;2022-11-18T02:52:00;9.02;;;5.03;;
64907;SDS011;64365;-1.756;110.040;2022-11-18T02:54:27;8.27;;;4.72;;
64907;SDS011;64365;-1.756;110.040;2022-11-18T02:56:54;8.80;;;5.07;;
64907;SDS011;64365;-1.756;110.040;2022-11-18T02:59:22;10.35;;;5.22;;
64907;SDS011;64365;-1.756;110.040;2022-11-18T03:01:50;6.35;;;4.95;;
64907;SDS011;64365;-1.756;110.040;2022-11-18T03:04:16;9.55;;;4.55;;
64907;SDS011;64365;-1.756;110.040;2022-11-18T03:06:44;7.47;;;5.05;;
64907;SDS011;64365;-1.756;110.040;2022-11-18T03:09:17;10.18;;;5.50;;
64907;SDS011;64365;-1.756;110.040;2022-11-18T03:11:50;10.38;;;4.85;;
64907;SDS011;64365;-1.756;110.040;2022-11-18T03:14:23;7.10;;;4.63;;
64907;SDS011;64365;-1.756;110.040;2022-11-18T03:16:58;7.97;;;4.95;;
64907;SDS011;64365;-1.756;110.040;2022-11-18T03:19:36;8.30;;;5.03;;
64907;SDS011;64365;-1.756;110.040;2022-11-18T03:22:14;9.77;;;5.70;;
64907;SDS011;64365;-1.756;110.040;2022-11-18T03:27:19;7.85;;;4.75;;
64907;SDS011;64365;-1.756;110.040;2022-11-18T03:29:53;10.48;;;5.05;;
64907;SDS011;64365;-1.756;110.040;2022-11-18T03:32:26;8.00;;;5.25;;
64907;SDS011;64365;-1.756;110.040;2022-11-18T03:34:57;9.82;;;5.38;;
64907;SDS011;64365;-1.756;110.040;2022-11-18T03:37:27;9.88;;;5.35;;
64907;SDS011;64365;-1.756;110.040;2022-11-18T03:39:58;7.28;;;4.80;;
64907;SDS011;64365;-1.756;110.040;2022-11-18T03:42:32;12.95;;;5.88;;
64907;SDS011;64365;-1.756;110.040;2022-11-18T03:45:04;9.15;;;5.28;;
64907;SDS011;64365;-1.756;110.040;2022-11-18T03:47:38;7.90;;;5.05;;
64907;SDS011;64365;-1.756;110.040;2022-11-18T03:50:09;10.02;;;5.40;;
64907;SDS011;64365;-1.756;110.040;2022-11-18T03:52:39;9.55;;;5.45;;
64907;SDS011;64365;-1.756;110.040;2022-11-18T03:55:09;9.90;;;5.20;;
64907;SDS011;64365;-1.756;110.040;2022-11-18T03:57:41;9.07;;;4.88;;
64907;SDS011;64365;-1.756;110.040;2022-11-18T04:00:12;9.23;;;5.13;;
64907;SDS011;64365;-1.756;110.040;2022-11-18T04:02:42;9.80;;;5.63;;
64907;SDS011;64365;-1.756;110.040;2022-11-18T04:05:11;8.68;;;5.20;;
64907;SDS011;64365;-1.756;110.040;2022-11-18T04:07:41;11.10;;;5.90;;
64907;SDS011;64365;-1.756;110.040;2022-11-18T04:10:18;11.25;;;5.40;;
64907;SDS011;64365;-1.756;110.040;2022-11-18T04:12:48;8.55;;;5.15;;
64907;SDS011;64365;-1.756;110.040;2022-11-18T04:15:19;10.82;;;5.50;;
64907;SDS011;64365;-1.756;110.040;2022-11-18T04:17:47;7.63;;;5.35;;
64907;SDS011;64365;-1.756;110.040;2022-11-18T04:20:14;9.23;;;5.22;;
64907;SDS011;64365;-1.756;110.040;2022-11-18T04:22:42;10.80;;;6.10;;
64907;SDS011;64365;-1.756;110.040;2022-11-18T04:25:09;14.88;;;6.57;;
64907;SDS011;64365;-1.756;110.040;2022-11-18T04:27:36;9.80;;;6.25;;
64907;SDS011;64365;-1.756;110.040;2022-11-18T04:30:03;13.70;;;5.43;;
64907;SDS011;64365;-1.756;110.040;2022-11-18T04:32:30;12.20;;;5.60;;
64907;SDS011;64365;-1.756;110.040;2022-11-18T04:34:59;9.55;;;5.47;;
64907;SDS011;64365;-1.756;110.040;2022-11-18T04:37:25;9.68;;;5.53;;
64907;SDS011;64365;-1.756;110.040;2022-11-18T04:39:52;11.82;;;6.10;;
64907;SDS011;64365;-1.756;110.040;2022-11-18T04:42:18;9.70;;;5.90;;
64907;SDS011;64365;-1.756;110.040;2022-11-18T04:44:45;8.85;;;5.45;;
64907;SDS011;64365;-1.756;110.040;2022-11-18T04:47:11;11.45;;;5.43;;
64907;SDS011;64365;-1.756;110.040;2022-11-18T04:49:38;9.55;;;5.80;;
64907;SDS011;64365;-1.756;110.040;2022-11-18T04:52:06;12.00;;;6.20;;
64907;SDS011;64365;-1.756;110.040;2022-11-18T04:54:33;10.23;;;5.60;;
64907;SDS011;64365;-1.756;110.040;2022-11-18T04:56:59;10.98;;;6.10;;
64907;SDS011;64365;-1.756;110.040;2022-11-18T04:59:27;10.55;;;6.38;;
64907;SDS011;64365;-1.756;110.040;2022-11-18T05:01:54;9.82;;;5.43;;
64907;SDS011;64365;-1.756;110.040;2022-11-18T05:04:23;12.52;;;6.57;;
64907;SDS011;64365;-1.756;110.040;2022-11-18T05:06:51;9.68;;;5.70;;
64907;SDS011;64365;-1.756;110.040;2022-11-18T05:09:19;10.90;;;5.82;;
64907;SDS011;64365;-1.756;110.040;2022-11-18T05:11:45;15.20;;;5.90;;
64907;SDS011;64365;-1.756;110.040;2022-11-18T05:14:30;9.63;;;5.20;;
64907;SDS011;64365;-1.756;110.040;2022-11-18T05:16:57;10.25;;;5.57;;
64907;SDS011;64365;-1.756;110.040;2022-11-18T05:19:26;12.73;;;5.70;;
64907;SDS011;64365;-1.756;110.040;2022-11-18T05:21:52;10.13;;;5.60;;
64907;SDS011;64365;-1.756;110.040;2022-11-18T05:24:21;11.05;;;6.00;;
64907;SDS011;64365;-1.756;110.040;2022-11-18T05:26:48;8.40;;;5.43;;
64907;SDS011;64365;-1.756;110.040;2022-11-18T05:29:15;9.82;;;5.82;;
64907;SDS011;64365;-1.756;110.040;2022-11-18T05:31:43;10.48;;;6.68;;
64907;SDS011;64365;-1.756;110.040;2022-11-18T05:34:09;8.50;;;4.90;;
64907;SDS011;64365;-1.756;110.040;2022-11-18T05:36:36;9.18;;;5.38;;
64907;SDS011;64365;-1.756;110.040;2022-11-18T05:39:03;11.20;;;5.93;;
64907;SDS011;64365;-1.756;110.040;2022-11-18T05:41:31;8.32;;;5.70;;
64907;SDS011;64365;-1.756;110.040;2022-11-18T05:44:15;8.00;;;5.25;;
64907;SDS011;64365;-1.756;110.040;2022-11-18T05:46:42;11.77;;;6.05;;
64907;SDS011;64365;-1.756;110.040;2022-11-18T05:49:09;10.50;;;6.50;;
64907;SDS011;64365;-1.756;110.040;2022-11-18T05:51:35;8.80;;;6.07;;
64907;SDS011;64365;-1.756;110.040;2022-11-18T05:54:03;10.20;;;6.10;;
64907;SDS011;64365;-1.756;110.040;2022-11-18T05:56:36;8.95;;;5.50;;
64907;SDS011;64365;-1.756;110.040;2022-11-18T05:59:04;12.38;;;6.82;;
64907;SDS011;64365;-1.756;110.040;2022-11-18T06:01:31;10.77;;;6.05;;
64907;SDS011;64365;-1.756;110.040;2022-11-18T06:04:02;8.88;;;5.97;;
64907;SDS011;64365;-1.756;110.040;2022-11-18T06:06:33;10.38;;;5.93;;
64907;SDS011;64365;-1.756;110.040;2022-11-18T06:09:00;11.93;;;6.15;;
64907;SDS011;64365;-1.756;110.040;2022-11-18T06:11:28;8.30;;;5.55;;
64907;SDS011;64365;-1.756;110.040;2022-11-18T06:13:59;11.45;;;5.82;;
64907;SDS011;64365;-1.756;110.040;2022-11-18T06:16:30;9.07;;;5.53;;
64907;SDS011;64365;-1.756;110.040;2022-11-18T06:18:58;10.88;;;5.20;;
64907;SDS011;64365;-1.756;110.040;2022-11-18T06:21:27;7.82;;;4.90;;
64907;SDS011;64365;-1.756;110.040;2022-11-18T06:23:54;9.80;;;5.63;;
64907;SDS011;64365;-1.756;110.040;2022-11-18T06:26:21;9.00;;;5.70;;
64907;SDS011;64365;-1.756;110.040;2022-11-18T06:28:48;9.68;;;5.85;;
64907;SDS011;64365;-1.756;110.040;2022-11-18T06:31:16;8.43;;;5.20;;
64907;SDS011;64365;-1.756;110.040;2022-11-18T06:33:42;10.02;;;5.50;;
64907;SDS011;64365;-1.756;110.040;2022-11-18T06:36:09;9.18;;;5.68;;
64907;SDS011;64365;-1.756;110.040;2022-11-18T06:38:35;11.77;;;6.22;;
64907;SDS011;64365;-1.756;110.040;2022-11-18T06:41:02;14.13;;;6.50;;
64907;SDS011;64365;-1.756;110.040;2022-11-18T06:43:29;12.68;;;6.78;;
64907;SDS011;64365;-1.756;110.040;2022-11-18T06:46:06;12.05;;;7.18;;
64907;SDS011;64365;-1.756;110.040;2022-11-18T06:48:53;12.45;;;6.63;;
64907;SDS011;64365;-1.756;110.040;2022-11-18T06:51:19;13.85;;;7.88;;
64907;SDS011;64365;-1.756;110.040;2022-11-18T06:53:46;15.35;;;8.63;;
64907;SDS011;64365;-1.756;110.040;2022-11-18T06:56:13;16.65;;;9.65;;
64907;SDS011;64365;-1.756;110.040;2022-11-18T06:58:41;13.85;;;6.65;;
64907;SDS011;64365;-1.756;110.040;2022-11-18T07:01:08;8.48;;;5.38;;
64907;SDS011;64365;-1.756;110.040;2022-11-18T07:03:36;12.65;;;6.18;;
64907;SDS011;64365;-1.756;110.040;2022-11-18T07:06:05;12.55;;;5.65;;
64907;SDS011;64365;-1.756;110.040;2022-11-18T07:08:33;9.73;;;5.70;;
64907;SDS011;64365;-1.756;110.040;2022-11-18T07:11:01;9.73;;;5.10;;
64907;SDS011;64365;-1.756;110.040;2022-11-18T07:13:29;12.45;;;5.75;;
64907;SDS011;64365;-1.756;110.040;2022-11-18T07:16:00;11.27;;;6.35;;
64907;SDS011;64365;-1.756;110.040;2022-11-18T07:18:30;8.70;;;5.72;;
64907;SDS011;64365;-1.756;110.040;2022-11-18T07:20:59;11.20;;;6.97;;
64907;SDS011;64365;-1.756;110.040;2022-11-18T07:23:29;9.90;;;6.43;;
64907;SDS011;64365;-1.756;110.040;2022-11-18T07:25:56;9.52;;;6.00;;
64907;SDS011;64365;-1.756;110.040;2022-11-18T07:28:22;10.73;;;6.45;;
64907;SDS011;64365;-1.756;110.040;2022-11-18T07:30:49;11.48;;;5.88;;
64907;SDS011;64365;-1.756;110.040;2022-11-18T07:33:16;8.52;;;5.30;;
64907;SDS011;64365;-1.756;110.040;2022-11-18T07:35:43;10.52;;;5.45;;
64907;SDS011;64365;-1.756;110.040;2022-11-18T07:38:09;11.07;;;6.07;;
64907;SDS011;64365;-1.756;110.040;2022-11-18T07:40:37;8.30;;;5.38;;
64907;SDS011;64365;-1.756;110.040;2022-11-18T07:43:04;9.20;;;5.47;;
64907;SDS011;64365;-1.756;110.040;2022-11-18T07:45:31;7.95;;;4.97;;
64907;SDS011;64365;-1.756;110.040;2022-11-18T07:47:57;11.77;;;5.03;;
64907;SDS011;64365;-1.756;110.040;2022-11-18T07:50:24;8.95;;;4.95;;
64907;SDS011;64365;-1.756;110.040;2022-11-18T07:52:53;8.15;;;5.20;;
64907;SDS011;64365;-1.756;110.040;2022-11-18T07:55:20;10.05;;;5.05;;
64907;SDS011;64365;-1.756;110.040;2022-11-18T07:57:48;13.88;;;5.70;;
64907;SDS011;64365;-1.756;110.040;2022-11-18T08:00:15;11.80;;;5.20;;
64907;SDS011;64365;-1.756;110.040;2022-11-18T08:02:42;9.52;;;5.32;;
64907;SDS011;64365;-1.756;110.040;2022-11-18T08:05:09;9.93;;;5.18;;
64907;SDS011;64365;-1.756;110.040;2022-11-18T08:07:36;7.95;;;4.95;;
64907;SDS011;64365;-1.756;110.040;2022-11-18T08:10:02;15.15;;;6.10;;
64907;SDS011;64365;-1.756;110.040;2022-11-18T08:12:29;7.95;;;5.10;;
64907;SDS011;64365;-1.756;110.040;2022-11-18T08:14:57;11.95;;;5.45;;
64907;SDS011;64365;-1.756;110.040;2022-11-18T08:17:24;10.27;;;5.38;;
64907;SDS011;64365;-1.756;110.040;2022-11-18T08:19:50;10.40;;;5.53;;
64907;SDS011;64365;-1.756;110.040;2022-11-18T08:22:17;9.63;;;5.45;;
64907;SDS011;64365;-1.756;110.040;2022-11-18T08:24:44;9.73;;;5.90;;
64907;SDS011;64365;-1.756;110.040;2022-11-18T08:27:11;10.43;;;6.10;;
64907;SDS011;64365;-1.756;110.040;2022-11-18T08:29:37;9.85;;;5.78;;
64907;SDS011;64365;-1.756;110.040;2022-11-18T08:32:06;13.35;;;5.80;;
64907;SDS011;64365;-1.756;110.040;2022-11-18T08:34:33;8.07;;;5.85;;
64907;SDS011;64365;-1.756;110.040;2022-11-18T08:36:59;10.27;;;5.68;;
64907;SDS011;64365;-1.756;110.040;2022-11-18T08:39:26;11.35;;;5.35;;
64907;SDS011;64365;-1.756;110.040;2022-11-18T08:41:52;12.98;;;6.28;;
64907;SDS011;64365;-1.756;110.040;2022-11-18T08:44:19;7.13;;;4.60;;
64907;SDS011;64365;-1.756;110.040;2022-11-18T08:46:45;11.38;;;5.78;;
64907;SDS011;64365;-1.756;110.040;2022-11-18T08:49:13;9.35;;;6.05;;
64907;SDS011;64365;-1.756;110.040;2022-11-18T08:51:40;10.48;;;5.55;;
64907;SDS011;64365;-1.756;110.040;2022-11-18T08:54:07;12.63;;;6.03;;
64907;SDS011;64365;-1.756;110.040;2022-11-18T08:56:33;12.00;;;5.70;;
64907;SDS011;64365;-1.756;110.040;2022-11-18T08:59:00;8.70;;;6.07;;
64907;SDS011;64365;-1.756;110.040;2022-11-18T09:01:26;10.30;;;5.05;;
64907;SDS011;64365;-1.756;110.040;2022-11-18T09:03:53;11.52;;;6.07;;
64907;SDS011;64365;-1.756;110.040;2022-11-18T09:06:21;14.68;;;6.50;;
64907;SDS011;64365;-1.756;110.040;2022-11-18T09:08:49;11.63;;;6.60;;
64907;SDS011;64365;-1.756;110.040;2022-11-18T09:11:16;10.52;;;6.22;;
64907;SDS011;64365;-1.756;110.040;2022-11-18T09:13:44;13.38;;;7.18;;
64907;SDS011;64365;-1.756;110.040;2022-11-18T09:16:11;13.13;;;6.45;;
64907;SDS011;64365;-1.756;110.040;2022-11-18T09:18:37;9.55;;;6.75;;
64907;SDS011;64365;-1.756;110.040;2022-11-18T09:21:06;10.18;;;7.53;;
64907;SDS011;64365;-1.756;110.040;2022-11-18T09:23:35;16.73;;;7.97;;
64907;SDS011;64365;-1.756;110.040;2022-11-18T09:26:03;13.35;;;7.60;;
64907;SDS011;64365;-1.756;110.040;2022-11-18T09:28:31;14.55;;;7.10;;
64907;SDS011;64365;-1.756;110.040;2022-11-18T09:30:58;13.73;;;7.82;;
64907;SDS011;64365;-1.756;110.040;2022-11-18T09:33:25;12.27;;;7.03;;
64907;SDS011;64365;-1.756;110.040;2022-11-18T09:35:52;13.55;;;6.88;;
64907;SDS011;64365;-1.756;110.040;2022-11-18T09:38:19;11.85;;;6.60;;
64907;SDS011;64365;-1.756;110.040;2022-11-18T09:40:49;11.43;;;7.38;;
64907;SDS011;64365;-1.756;110.040;2022-11-18T09:43:27;10.75;;;6.63;;
64907;SDS011;64365;-1.756;110.040;2022-11-18T09:46:03;8.60;;;6.05;;
64907;SDS011;64365;-1.756;110.040;2022-11-18T09:48:41;12.95;;;5.97;;
64907;SDS011;64365;-1.756;110.040;2022-11-18T09:51:25;10.57;;;5.82;;
64907;SDS011;64365;-1.756;110.040;2022-11-18T09:53:53;10.57;;;6.05;;
64907;SDS011;64365;-1.756;110.040;2022-11-18T09:56:21;12.23;;;5.97;;
64907;SDS011;64365;-1.756;110.040;2022-11-18T09:58:48;11.57;;;6.47;;
64907;SDS011;64365;-1.756;110.040;2022-11-18T10:01:16;9.90;;;6.63;;
64907;SDS011;64365;-1.756;110.040;2022-11-18T10:03:45;13.85;;;6.72;;
64907;SDS011;64365;-1.756;110.040;2022-11-18T10:06:17;13.48;;;6.45;;
64907;SDS011;64365;-1.756;110.040;2022-11-18T10:08:54;13.45;;;6.28;;
64907;SDS011;64365;-1.756;110.040;2022-11-18T10:11:32;12.02;;;6.80;;
64907;SDS011;64365;-1.756;110.040;2022-11-18T10:14:05;16.70;;;7.32;;
64907;SDS011;64365;-1.756;110.040;2022-11-18T10:16:42;10.73;;;6.22;;
64907;SDS011;64365;-1.756;110.040;2022-11-18T10:19:23;10.27;;;5.85;;
64907;SDS011;64365;-1.756;110.040;2022-11-18T10:21:56;9.02;;;5.25;;
64907;SDS011;64365;-1.756;110.040;2022-11-18T10:24:36;11.88;;;6.18;;
64907;SDS011;64365;-1.756;110.040;2022-11-18T10:27:09;9.88;;;5.18;;
64907;SDS011;64365;-1.756;110.040;2022-11-18T10:29:37;9.73;;;5.30;;
64907;SDS011;64365;-1.756;110.040;2022-11-18T10:32:04;11.63;;;5.32;;
64907;SDS011;64365;-1.756;110.040;2022-11-18T10:34:32;11.95;;;6.25;;
64907;SDS011;64365;-1.756;110.040;2022-11-18T10:37:01;11.95;;;5.47;;
64907;SDS011;64365;-1.756;110.040;2022-11-18T10:39:30;9.40;;;4.97;;
64907;SDS011;64365;-1.756;110.040;2022-11-18T10:41:59;8.75;;;4.97;;
64907;SDS011;64365;-1.756;110.040;2022-11-18T10:44:30;11.02;;;5.15;;
64907;SDS011;64365;-1.756;110.040;2022-11-18T10:47:14;9.27;;;5.03;;
64907;SDS011;64365;-1.756;110.040;2022-11-18T10:49:47;11.50;;;5.47;;
64907;SDS011;64365;-1.756;110.040;2022-11-18T10:52:14;12.23;;;6.45;;
64907;SDS011;64365;-1.756;110.040;2022-11-18T10:54:41;14.43;;;5.40;;
64907;SDS011;64365;-1.756;110.040;2022-11-18T10:57:12;10.57;;;5.30;;
64907;SDS011;64365;-1.756;110.040;2022-11-18T10:59:46;12.43;;;5.45;;
64907;SDS011;64365;-1.756;110.040;2022-11-18T11:02:16;10.20;;;5.43;;
64907;SDS011;64365;-1.756;110.040;2022-11-18T11:04:45;10.95;;;5.82;;
64907;SDS011;64365;-1.756;110.040;2022-11-18T11:07:14;10.05;;;5.00;;
64907;SDS011;64365;-1.756;110.040;2022-11-18T11:10:00;9.60;;;5.15;;
64907;SDS011;64365;-1.756;110.040;2022-11-18T11:12:43;11.63;;;4.95;;
64907;SDS011;64365;-1.756;110.040;2022-11-18T11:15:17;9.10;;;4.75;;
64907;SDS011;64365;-1.756;110.040;2022-11-18T11:17:48;9.52;;;5.03;;
64907;SDS011;64365;-1.756;110.040;2022-11-18T11:20:39;8.98;;;4.90;;
64907;SDS011;64365;-1.756;110.040;2022-11-18T11:23:07;9.27;;;5.03;;
64907;SDS011;64365;-1.756;110.040;2022-11-18T11:25:36;7.97;;;5.07;;
64907;SDS011;64365;-1.756;110.040;2022-11-18T11:28:08;9.52;;;4.88;;
64907;SDS011;64365;-1.756;110.040;2022-11-18T11:30:48;9.05;;;4.88;;
64907;SDS011;64365;-1.756;110.040;2022-11-18T11:33:31;12.30;;;5.95;;
64907;SDS011;64365;-1.756;110.040;2022-11-18T11:36:08;11.20;;;5.47;;
64907;SDS011;64365;-1.756;110.040;2022-11-18T11:38:45;16.23;;;5.93;;
64907;SDS011;64365;-1.756;110.040;2022-11-18T11:41:21;8.93;;;5.43;;
64907;SDS011;64365;-1.756;110.040;2022-11-18T11:43:52;13.27;;;5.80;;
64907;SDS011;64365;-1.756;110.040;2022-11-18T11:46:33;14.00;;;5.93;;
64907;SDS011;64365;-1.756;110.040;2022-11-18T11:49:32;11.98;;;5.93;;
64907;SDS011;64365;-1.756;110.040;2022-11-18T11:52:10;10.70;;;5.95;;
64907;SDS011;64365;-1.756;110.040;2022-11-18T11:54:42;12.38;;;5.50;;
64907;SDS011;64365;-1.756;110.040;2022-11-18T11:57:22;15.35;;;7.05;;
64907;SDS011;64365;-1.756;110.040;2022-11-18T12:00:00;9.80;;;5.82;;
64907;SDS011;64365;-1.756;110.040;2022-11-18T12:02:37;8.93;;;5.50;;
64907;SDS011;64365;-1.756;110.040;2022-11-18T12:05:19;12.27;;;5.78;;
64907;SDS011;64365;-1.756;110.040;2022-11-18T12:07:52;11.52;;;6.13;;
64907;SDS011;64365;-1.756;110.040;2022-11-18T12:10:27;14.95;;;6.28;;
64907;SDS011;64365;-1.756;110.040;2022-11-18T12:13:02;7.00;;;5.22;;
64907;SDS011;64365;-1.756;110.040;2022-11-18T12:15:43;12.27;;;6.22;;
64907;SDS011;64365;-1.756;110.040;2022-11-18T12:18:20;11.65;;;6.38;;
64907;SDS011;64365;-1.756;110.040;2022-11-18T12:20:51;16.42;;;7.60;;
64907;SDS011;64365;-1.756;110.040;2022-11-18T12:23:19;13.75;;;6.40;;
64907;SDS011;64365;-1.756;110.040;2022-11-18T12:25:51;11.43;;;6.82;;
64907;SDS011;64365;-1.756;110.040;2022-11-18T12:28:27;12.98;;;7.90;;
64907;SDS011;64365;-1.756;110.040;2022-11-18T12:34:00;15.30;;;8.15;;
64907;SDS011;64365;-1.756;110.040;2022-11-18T12:36:30;19.35;;;10.35;;
64907;SDS011;64365;-1.756;110.040;2022-11-18T12:38:58;20.85;;;10.30;;
64907;SDS011;64365;-1.756;110.040;2022-11-18T12:41:51;22.42;;;11.38;;
64907;SDS011;64365;-1.756;110.040;2022-11-18T12:44:37;15.32;;;9.45;;
64907;SDS011;64365;-1.756;110.040;2022-11-18T12:47:04;17.17;;;9.88;;
64907;SDS011;64365;-1.756;110.040;2022-11-18T12:52:46;20.63;;;10.93;;
64907;SDS011;64365;-1.756;110.040;2022-11-18T12:55:15;16.45;;;9.88;;
64907;SDS011;64365;-1.756;110.040;2022-11-18T12:57:45;18.40;;;10.77;;
64907;SDS011;64365;-1.756;110.040;2022-11-18T13:00:16;16.60;;;10.73;;
64907;SDS011;64365;-1.756;110.040;2022-11-18T13:02:53;25.98;;;11.93;;
64907;SDS011;64365;-1.756;110.040;2022-11-18T13:05:22;16.40;;;10.02;;
64907;SDS011;64365;-1.756;110.040;2022-11-18T13:07:51;17.45;;;10.88;;
64907;SDS011;64365;-1.756;110.040;2022-11-18T13:10:43;19.25;;;12.30;;
64907;SDS011;64365;-1.756;110.040;2022-11-18T13:13:12;17.77;;;11.65;;
64907;SDS011;64365;-1.756;110.040;2022-11-18T13:15:47;15.95;;;10.27;;
64907;SDS011;64365;-1.756;110.040;2022-11-18T13:18:31;22.33;;;12.63;;
64907;SDS011;64365;-1.756;110.040;2022-11-18T13:20:59;17.52;;;12.30;;
64907;SDS011;64365;-1.756;110.040;2022-11-18T13:23:48;18.95;;;13.63;;
64907;SDS011;64365;-1.756;110.040;2022-11-18T13:26:18;22.10;;;12.18;;
64907;SDS011;64365;-1.756;110.040;2022-11-18T13:28:54;15.38;;;11.65;;
64907;SDS011;64365;-1.756;110.040;2022-11-18T13:31:41;18.83;;;11.20;;
64907;SDS011;64365;-1.756;110.040;2022-11-18T13:34:16;16.25;;;11.55;;
64907;SDS011;64365;-1.756;110.040;2022-11-18T13:36:44;22.08;;;13.63;;
64907;SDS011;64365;-1.756;110.040;2022-11-18T13:39:18;23.55;;;13.00;;
64907;SDS011;64365;-1.756;110.040;2022-11-18T13:41:56;18.77;;;13.05;;
64907;SDS011;64365;-1.756;110.040;2022-11-18T13:44:24;20.33;;;13.68;;
64907;SDS011;64365;-1.756;110.040;2022-11-18T13:46:53;20.70;;;14.10;;
64907;SDS011;64365;-1.756;110.040;2022-11-18T13:49:26;17.50;;;12.60;;
64907;SDS011;64365;-1.756;110.040;2022-11-18T13:52:00;19.13;;;13.13;;
64907;SDS011;64365;-1.756;110.040;2022-11-18T13:54:28;19.10;;;14.35;;
64907;SDS011;64365;-1.756;110.040;2022-11-18T13:56:55;24.02;;;14.27;;
64907;SDS011;64365;-1.756;110.040;2022-11-18T13:59:22;20.42;;;13.35;;
64907;SDS011;64365;-1.756;110.040;2022-11-18T14:01:52;22.65;;;13.48;;
64907;SDS011;64365;-1.756;110.040;2022-11-18T14:04:20;20.02;;;15.00;;
64907;SDS011;64365;-1.756;110.040;2022-11-18T14:06:49;19.83;;;12.35;;
64907;SDS011;64365;-1.756;110.040;2022-11-18T14:09:17;23.92;;;13.75;;
64907;SDS011;64365;-1.756;110.040;2022-11-18T14:12:00;19.37;;;12.80;;
64907;SDS011;64365;-1.756;110.040;2022-11-18T14:14:30;18.58;;;12.30;;
64907;SDS011;64365;-1.756;110.040;2022-11-18T14:17:14;17.38;;;12.32;;
64907;SDS011;64365;-1.756;110.040;2022-11-18T14:19:43;22.98;;;12.98;;
64907;SDS011;64365;-1.756;110.040;2022-11-18T14:22:11;20.15;;;13.57;;
64907;SDS011;64365;-1.756;110.040;2022-11-18T14:24:41;20.17;;;13.15;;
64907;SDS011;64365;-1.756;110.040;2022-11-18T14:27:29;21.67;;;12.63;;
64907;SDS011;64365;-1.756;110.040;2022-11-18T14:30:00;17.92;;;12.35;;
64907;SDS011;64365;-1.756;110.040;2022-11-18T14:32:27;19.95;;;12.57;;
64907;SDS011;64365;-1.756;110.040;2022-11-18T14:34:57;14.93;;;11.18;;
64907;SDS011;64365;-1.756;110.040;2022-11-18T14:37:24;22.83;;;13.30;;
64907;SDS011;64365;-1.756;110.040;2022-11-18T14:39:55;17.27;;;12.50;;
64907;SDS011;64365;-1.756;110.040;2022-11-18T14:42:23;26.48;;;13.13;;
64907;SDS011;64365;-1.756;110.040;2022-11-18T14:44:51;21.90;;;12.75;;
64907;SDS011;64365;-1.756;110.040;2022-11-18T14:47:19;18.80;;;12.50;;